sensor_id;sensor_type;location;lat;lon;timestamp;P1;durP1;ratioP1;P2;durP2;ratioP2
16743;SDS011;71724;-33.900;151.182;2023-11-21T00:00:35;2.80;;;0.77;;
16743;SDS011;71724;-33.900;151.182;2023-11-21T00:03:03;1.38;;;0.60;;
16743;SDS011;71724;-33.900;151.182;2023-11-21T00:05:30;3.28;;;0.55;;
16743;SDS011;71724;-33.900;151.182;2023-11-21T00:07:58;0.98;;;0.50;;
16743;SDS011;71724;-33.900;151.182;2023-11-21T00:10:25;1.95;;;0.40;;
16743;SDS011;71724;-33.900;151.182;2023-11-21T00:12:54;1.92;;;0.60;;
16743;SDS011;71724;-33.900;151.182;2023-11-21T00:15:21;1.38;;;0.75;;
16743;SDS011;71724;-33.900;151.182;2023-11-21T00:17:48;2.35;;;0.70;;
16743;SDS011;71724;-33.900;151.182;2023-11-21T00:20:16;1.15;;;0.70;;
16743;SDS011;71724;-33.900;151.182;2023-11-21T00:22:43;1.73;;;0.50;;
16743;SDS011;71724;-33.900;151.182;2023-11-21T00:25:11;0.73;;;0.45;;
16743;SDS011;71724;-33.900;151.182;2023-11-21T00:27:41;0.30;;;0.30;;
16743;SDS011;71724;-33.900;151.182;2023-11-21T00:30:08;0.45;;;0.30;;
16743;SDS011;71724;-33.900;151.182;2023-11-21T00:32:38;1.05;;;0.60;;
16743;SDS011;71724;-33.900;151.182;2023-11-21T00:35:07;1.95;;;0.52;;
16743;SDS011;71724;-33.900;151.182;2023-11-21T00:37:34;1.05;;;0.50;;
16743;SDS011;71724;-33.900;151.182;2023-11-21T00:40:02;1.02;;;0.50;;
16743;SDS011;71724;-33.900;151.182;2023-11-21T00:42:33;2.50;;;0.50;;
16743;SDS011;71724;-33.900;151.182;2023-11-21T00:45:00;3.25;;;0.70;;
16743;SDS011;71724;-33.900;151.182;2023-11-21T00:47:29;0.57;;;0.57;;
16743;SDS011;71724;-33.900;151.182;2023-11-21T00:49:56;0.73;;;0.50;;
16743;SDS011;71724;-33.900;151.182;2023-11-21T00:52:24;1.25;;;0.50;;
16743;SDS011;71724;-33.900;151.182;2023-11-21T00:54:51;0.85;;;0.60;;
16743;SDS011;71724;-33.900;151.182;2023-11-21T00:57:19;1.92;;;0.50;;
16743;SDS011;71724;-33.900;151.182;2023-11-21T00:59:46;0.60;;;0.40;;
16743;SDS011;71724;-33.900;151.182;2023-11-21T01:02:14;0.50;;;0.50;;
16743;SDS011;71724;-33.900;151.182;2023-11-21T01:04:41;0.55;;;0.40;;
16743;SDS011;71724;-33.900;151.182;2023-11-21T01:07:09;0.50;;;0.50;;
16743;SDS011;71724;-33.900;151.182;2023-11-21T01:09:36;0.50;;;0.50;;
16743;SDS011;71724;-33.900;151.182;2023-11-21T01:12:04;0.50;;;0.50;;
16743;SDS011;71724;-33.900;151.182;2023-11-21T01:14:32;0.82;;;0.60;;
16743;SDS011;71724;-33.900;151.182;2023-11-21T01:16:59;1.40;;;0.50;;
16743;SDS011;71724;-33.900;151.182;2023-11-21T01:19:27;1.27;;;0.50;;
16743;SDS011;71724;-33.900;151.182;2023-11-21T01:21:55;0.55;;;0.40;;
16743;SDS011;71724;-33.900;151.182;2023-11-21T01:24:23;0.52;;;0.40;;
16743;SDS011;71724;-33.900;151.182;2023-11-21T01:26:50;0.30;;;0.30;;
16743;SDS011;71724;-33.900;151.182;2023-11-21T01:29:18;0.52;;;0.40;;
16743;SDS011;71724;-33.900;151.182;2023-11-21T01:31:45;0.63;;;0.30;;
16743;SDS011;71724;-33.900;151.182;2023-11-21T01:34:13;3.08;;;0.50;;
16743;SDS011;71724;-33.900;151.182;2023-11-21T01:36:40;0.25;;;0.25;;
16743;SDS011;71724;-33.900;151.182;2023-11-21T01:39:07;1.77;;;0.47;;
16743;SDS011;71724;-33.900;151.182;2023-11-21T01:41:41;0.85;;;0.22;;
16743;SDS011;71724;-33.900;151.182;2023-11-21T01:44:11;0.22;;;0.20;;
16743;SDS011;71724;-33.900;151.182;2023-11-21T01:46:38;0.82;;;0.60;;
16743;SDS011;71724;-33.900;151.182;2023-11-21T01:49:07;0.40;;;0.40;;
16743;SDS011;71724;-33.900;151.182;2023-11-21T01:51:39;1.52;;;1.10;;
16743;SDS011;71724;-33.900;151.182;2023-11-21T01:54:10;2.13;;;1.00;;
16743;SDS011;71724;-33.900;151.182;2023-11-21T01:56:37;1.38;;;0.43;;
16743;SDS011;71724;-33.900;151.182;2023-11-21T01:59:05;0.65;;;0.52;;
16743;SDS011;71724;-33.900;151.182;2023-11-21T02:01:33;1.95;;;0.60;;
16743;SDS011;71724;-33.900;151.182;2023-11-21T02:04:01;0.50;;;0.50;;
16743;SDS011;71724;-33.900;151.182;2023-11-21T02:06:29;0.77;;;0.50;;
16743;SDS011;71724;-33.900;151.182;2023-11-21T02:08:56;0.80;;;0.50;;
16743;SDS011;71724;-33.900;151.182;2023-11-21T02:11:25;0.77;;;0.60;;
16743;SDS011;71724;-33.900;151.182;2023-11-21T02:13:53;0.75;;;0.50;;
16743;SDS011;71724;-33.900;151.182;2023-11-21T02:16:20;0.73;;;0.50;;
16743;SDS011;71724;-33.900;151.182;2023-11-21T02:18:48;0.40;;;0.40;;
16743;SDS011;71724;-33.900;151.182;2023-11-21T02:21:17;1.50;;;0.50;;
16743;SDS011;71724;-33.900;151.182;2023-11-21T02:23:45;1.90;;;0.50;;
16743;SDS011;71724;-33.900;151.182;2023-11-21T02:26:12;2.55;;;0.70;;
16743;SDS011;71724;-33.900;151.182;2023-11-21T02:28:40;3.97;;;0.70;;
16743;SDS011;71724;-33.900;151.182;2023-11-21T02:31:08;2.90;;;0.45;;
16743;SDS011;71724;-33.900;151.182;2023-11-21T02:33:35;1.20;;;0.55;;
16743;SDS011;71724;-33.900;151.182;2023-11-21T02:36:02;2.20;;;0.50;;
16743;SDS011;71724;-33.900;151.182;2023-11-21T02:38:31;0.93;;;0.50;;
16743;SDS011;71724;-33.900;151.182;2023-11-21T02:40:58;1.70;;;0.60;;
16743;SDS011;71724;-33.900;151.182;2023-11-21T02:43:25;3.83;;;0.98;;
16743;SDS011;71724;-33.900;151.182;2023-11-21T02:45:53;2.58;;;0.70;;
16743;SDS011;71724;-33.900;151.182;2023-11-21T02:48:20;1.20;;;0.73;;
16743;SDS011;71724;-33.900;151.182;2023-11-21T02:50:49;1.13;;;0.63;;
16743;SDS011;71724;-33.900;151.182;2023-11-21T02:53:18;1.20;;;0.50;;
16743;SDS011;71724;-33.900;151.182;2023-11-21T02:55:46;2.47;;;0.70;;
16743;SDS011;71724;-33.900;151.182;2023-11-21T02:58:13;2.03;;;0.60;;
16743;SDS011;71724;-33.900;151.182;2023-11-21T03:00:40;1.25;;;0.80;;
16743;SDS011;71724;-33.900;151.182;2023-11-21T03:03:08;5.13;;;0.70;;
16743;SDS011;71724;-33.900;151.182;2023-11-21T03:05:35;2.58;;;0.98;;
16743;SDS011;71724;-33.900;151.182;2023-11-21T03:08:04;1.80;;;0.50;;
16743;SDS011;71724;-33.900;151.182;2023-11-21T03:10:31;2.13;;;0.63;;
16743;SDS011;71724;-33.900;151.182;2023-11-21T03:12:58;2.97;;;0.80;;
16743;SDS011;71724;-33.900;151.182;2023-11-21T03:15:26;1.20;;;0.50;;
16743;SDS011;71724;-33.900;151.182;2023-11-21T03:17:53;1.65;;;0.50;;
16743;SDS011;71724;-33.900;151.182;2023-11-21T03:20:20;2.45;;;0.60;;
16743;SDS011;71724;-33.900;151.182;2023-11-21T03:22:48;3.45;;;0.65;;
16743;SDS011;71724;-33.900;151.182;2023-11-21T03:25:15;2.30;;;0.43;;
16743;SDS011;71724;-33.900;151.182;2023-11-21T03:27:43;1.50;;;0.63;;
16743;SDS011;71724;-33.900;151.182;2023-11-21T03:30:10;4.60;;;0.82;;
16743;SDS011;71724;-33.900;151.182;2023-11-21T03:32:38;2.65;;;0.88;;
16743;SDS011;71724;-33.900;151.182;2023-11-21T03:35:08;1.73;;;0.70;;
16743;SDS011;71724;-33.900;151.182;2023-11-21T03:37:36;3.17;;;0.70;;
16743;SDS011;71724;-33.900;151.182;2023-11-21T03:40:07;3.15;;;0.68;;
16743;SDS011;71724;-33.900;151.182;2023-11-21T03:42:35;1.10;;;0.50;;
16743;SDS011;71724;-33.900;151.182;2023-11-21T03:45:02;1.52;;;0.60;;
16743;SDS011;71724;-33.900;151.182;2023-11-21T03:47:30;4.25;;;0.52;;
16743;SDS011;71724;-33.900;151.182;2023-11-21T03:49:58;1.67;;;0.60;;
16743;SDS011;71724;-33.900;151.182;2023-11-21T03:52:25;2.95;;;1.00;;
16743;SDS011;71724;-33.900;151.182;2023-11-21T03:54:54;1.73;;;0.68;;
16743;SDS011;71724;-33.900;151.182;2023-11-21T03:57:21;2.33;;;0.60;;
16743;SDS011;71724;-33.900;151.182;2023-11-21T03:59:48;4.32;;;0.65;;
16743;SDS011;71724;-33.900;151.182;2023-11-21T04:02:16;2.63;;;0.85;;
16743;SDS011;71724;-33.900;151.182;2023-11-21T04:04:43;2.55;;;0.60;;
16743;SDS011;71724;-33.900;151.182;2023-11-21T04:07:12;2.75;;;0.80;;
16743;SDS011;71724;-33.900;151.182;2023-11-21T04:09:40;2.20;;;0.60;;
16743;SDS011;71724;-33.900;151.182;2023-11-21T04:12:07;2.60;;;0.80;;
16743;SDS011;71724;-33.900;151.182;2023-11-21T04:14:35;1.65;;;0.50;;
16743;SDS011;71724;-33.900;151.182;2023-11-21T04:17:02;3.75;;;0.80;;
16743;SDS011;71724;-33.900;151.182;2023-11-21T04:19:30;3.70;;;0.77;;
16743;SDS011;71724;-33.900;151.182;2023-11-21T04:21:57;3.00;;;0.77;;
16743;SDS011;71724;-33.900;151.182;2023-11-21T04:24:25;1.92;;;0.68;;
16743;SDS011;71724;-33.900;151.182;2023-11-21T04:26:53;2.30;;;0.80;;
16743;SDS011;71724;-33.900;151.182;2023-11-21T04:29:21;0.63;;;0.50;;
16743;SDS011;71724;-33.900;151.182;2023-11-21T04:31:48;1.38;;;0.80;;
16743;SDS011;71724;-33.900;151.182;2023-11-21T04:34:16;2.28;;;0.68;;
16743;SDS011;71724;-33.900;151.182;2023-11-21T04:36:44;2.85;;;0.68;;
16743;SDS011;71724;-33.900;151.182;2023-11-21T04:39:11;0.60;;;0.50;;
16743;SDS011;71724;-33.900;151.182;2023-11-21T04:41:39;2.30;;;0.70;;
16743;SDS011;71724;-33.900;151.182;2023-11-21T04:44:06;2.00;;;0.68;;
16743;SDS011;71724;-33.900;151.182;2023-11-21T04:46:34;1.15;;;0.75;;
16743;SDS011;71724;-33.900;151.182;2023-11-21T04:49:01;2.15;;;0.80;;
16743;SDS011;71724;-33.900;151.182;2023-11-21T04:51:28;1.92;;;0.60;;
16743;SDS011;71724;-33.900;151.182;2023-11-21T04:53:57;2.97;;;0.80;;
16743;SDS011;71724;-33.900;151.182;2023-11-21T04:56:25;2.22;;;0.68;;
16743;SDS011;71724;-33.900;151.182;2023-11-21T04:58:53;3.35;;;0.70;;
16743;SDS011;71724;-33.900;151.182;2023-11-21T05:01:20;2.10;;;0.50;;
16743;SDS011;71724;-33.900;151.182;2023-11-21T05:03:48;1.73;;;0.70;;
16743;SDS011;71724;-33.900;151.182;2023-11-21T05:06:15;2.42;;;0.70;;
16743;SDS011;71724;-33.900;151.182;2023-11-21T05:08:43;1.65;;;0.60;;
16743;SDS011;71724;-33.900;151.182;2023-11-21T05:11:10;1.10;;;0.50;;
16743;SDS011;71724;-33.900;151.182;2023-11-21T05:13:37;1.15;;;0.60;;
16743;SDS011;71724;-33.900;151.182;2023-11-21T05:16:05;3.53;;;0.60;;
16743;SDS011;71724;-33.900;151.182;2023-11-21T05:18:33;1.65;;;0.55;;
16743;SDS011;71724;-33.900;151.182;2023-11-21T05:21:00;3.97;;;0.60;;
16743;SDS011;71724;-33.900;151.182;2023-11-21T05:23:28;2.45;;;0.68;;
16743;SDS011;71724;-33.900;151.182;2023-11-21T05:25:55;1.35;;;0.60;;
16743;SDS011;71724;-33.900;151.182;2023-11-21T05:28:22;1.13;;;0.65;;
16743;SDS011;71724;-33.900;151.182;2023-11-21T05:30:50;2.50;;;1.13;;
16743;SDS011;71724;-33.900;151.182;2023-11-21T05:33:18;1.50;;;0.82;;
16743;SDS011;71724;-33.900;151.182;2023-11-21T05:35:46;0.60;;;0.60;;
16743;SDS011;71724;-33.900;151.182;2023-11-21T05:38:16;2.38;;;0.80;;
16743;SDS011;71724;-33.900;151.182;2023-11-21T05:40:43;4.30;;;1.00;;
16743;SDS011;71724;-33.900;151.182;2023-11-21T05:43:11;2.13;;;1.10;;
16743;SDS011;71724;-33.900;151.182;2023-11-21T05:45:38;4.05;;;1.02;;
16743;SDS011;71724;-33.900;151.182;2023-11-21T05:48:06;1.75;;;0.90;;
16743;SDS011;71724;-33.900;151.182;2023-11-21T05:50:33;4.45;;;0.80;;
16743;SDS011;71724;-33.900;151.182;2023-11-21T05:53:01;3.15;;;0.93;;
16743;SDS011;71724;-33.900;151.182;2023-11-21T05:55:28;2.83;;;0.90;;
16743;SDS011;71724;-33.900;151.182;2023-11-21T05:57:55;4.32;;;0.90;;
16743;SDS011;71724;-33.900;151.182;2023-11-21T06:00:23;2.28;;;0.70;;
16743;SDS011;71724;-33.900;151.182;2023-11-21T06:02:53;2.92;;;0.73;;
16743;SDS011;71724;-33.900;151.182;2023-11-21T06:05:21;3.45;;;0.68;;
16743;SDS011;71724;-33.900;151.182;2023-11-21T06:08:10;6.18;;;0.70;;
16743;SDS011;71724;-33.900;151.182;2023-11-21T06:10:37;2.05;;;0.80;;
16743;SDS011;71724;-33.900;151.182;2023-11-21T06:13:06;4.18;;;0.80;;
16743;SDS011;71724;-33.900;151.182;2023-11-21T06:15:34;3.20;;;1.00;;
16743;SDS011;71724;-33.900;151.182;2023-11-21T06:18:02;2.00;;;0.60;;
16743;SDS011;71724;-33.900;151.182;2023-11-21T06:20:31;3.33;;;0.70;;
16743;SDS011;71724;-33.900;151.182;2023-11-21T06:22:59;2.20;;;0.75;;
16743;SDS011;71724;-33.900;151.182;2023-11-21T06:25:29;4.10;;;0.80;;
16743;SDS011;71724;-33.900;151.182;2023-11-21T06:28:05;5.72;;;0.80;;
16743;SDS011;71724;-33.900;151.182;2023-11-21T06:30:39;2.90;;;0.60;;
16743;SDS011;71724;-33.900;151.182;2023-11-21T06:33:24;5.85;;;0.80;;
16743;SDS011;71724;-33.900;151.182;2023-11-21T06:35:56;4.80;;;0.95;;
16743;SDS011;71724;-33.900;151.182;2023-11-21T06:38:30;5.50;;;1.00;;
16743;SDS011;71724;-33.900;151.182;2023-11-21T06:40:58;2.10;;;0.63;;
16743;SDS011;71724;-33.900;151.182;2023-11-21T06:43:30;5.57;;;0.88;;
16743;SDS011;71724;-33.900;151.182;2023-11-21T06:45:57;2.88;;;1.20;;
16743;SDS011;71724;-33.900;151.182;2023-11-21T06:48:25;3.22;;;1.08;;
16743;SDS011;71724;-33.900;151.182;2023-11-21T06:50:52;2.65;;;1.10;;
16743;SDS011;71724;-33.900;151.182;2023-11-21T06:53:20;2.15;;;0.70;;
16743;SDS011;71724;-33.900;151.182;2023-11-21T06:55:48;3.03;;;1.75;;
16743;SDS011;71724;-33.900;151.182;2023-11-21T06:58:16;4.30;;;1.50;;
16743;SDS011;71724;-33.900;151.182;2023-11-21T07:00:43;6.90;;;1.40;;
16743;SDS011;71724;-33.900;151.182;2023-11-21T07:03:14;3.50;;;1.60;;
16743;SDS011;71724;-33.900;151.182;2023-11-21T07:05:45;2.95;;;1.00;;
16743;SDS011;71724;-33.900;151.182;2023-11-21T07:08:12;6.30;;;0.80;;
16743;SDS011;71724;-33.900;151.182;2023-11-21T07:10:40;4.65;;;1.20;;
16743;SDS011;71724;-33.900;151.182;2023-11-21T07:13:07;4.88;;;0.80;;
16743;SDS011;71724;-33.900;151.182;2023-11-21T07:15:38;4.80;;;1.30;;
16743;SDS011;71724;-33.900;151.182;2023-11-21T07:18:07;3.92;;;1.38;;
16743;SDS011;71724;-33.900;151.182;2023-11-21T07:20:35;2.95;;;1.00;;
16743;SDS011;71724;-33.900;151.182;2023-11-21T07:23:04;3.13;;;1.10;;
16743;SDS011;71724;-33.900;151.182;2023-11-21T07:25:32;5.45;;;1.25;;
16743;SDS011;71724;-33.900;151.182;2023-11-21T07:28:02;2.85;;;1.10;;
16743;SDS011;71724;-33.900;151.182;2023-11-21T07:30:33;3.95;;;1.08;;
16743;SDS011;71724;-33.900;151.182;2023-11-21T07:33:03;3.22;;;1.00;;
16743;SDS011;71724;-33.900;151.182;2023-11-21T07:35:32;4.70;;;0.95;;
16743;SDS011;71724;-33.900;151.182;2023-11-21T07:38:07;4.93;;;1.13;;
16743;SDS011;71724;-33.900;151.182;2023-11-21T07:40:39;3.53;;;0.90;;
16743;SDS011;71724;-33.900;151.182;2023-11-21T07:43:10;3.97;;;0.80;;
16743;SDS011;71724;-33.900;151.182;2023-11-21T07:45:39;4.57;;;0.63;;
16743;SDS011;71724;-33.900;151.182;2023-11-21T07:48:07;2.47;;;0.80;;
16743;SDS011;71724;-33.900;151.182;2023-11-21T07:50:36;1.13;;;0.80;;
16743;SDS011;71724;-33.900;151.182;2023-11-21T07:53:05;0.70;;;0.47;;
16743;SDS011;71724;-33.900;151.182;2023-11-21T07:55:35;3.50;;;0.70;;
16743;SDS011;71724;-33.900;151.182;2023-11-21T07:58:02;2.08;;;0.70;;
16743;SDS011;71724;-33.900;151.182;2023-11-21T08:00:30;4.05;;;0.90;;
16743;SDS011;71724;-33.900;151.182;2023-11-21T08:02:58;2.05;;;0.98;;
16743;SDS011;71724;-33.900;151.182;2023-11-21T08:05:26;3.92;;;0.85;;
16743;SDS011;71724;-33.900;151.182;2023-11-21T08:07:53;3.00;;;0.90;;
16743;SDS011;71724;-33.900;151.182;2023-11-21T08:10:21;3.28;;;0.93;;
16743;SDS011;71724;-33.900;151.182;2023-11-21T08:12:49;1.98;;;0.80;;
16743;SDS011;71724;-33.900;151.182;2023-11-21T08:15:16;2.17;;;0.90;;
16743;SDS011;71724;-33.900;151.182;2023-11-21T08:17:44;1.27;;;0.70;;
16743;SDS011;71724;-33.900;151.182;2023-11-21T08:20:12;4.55;;;1.10;;
16743;SDS011;71724;-33.900;151.182;2023-11-21T08:22:45;2.17;;;0.90;;
16743;SDS011;71724;-33.900;151.182;2023-11-21T08:25:13;2.58;;;0.90;;
16743;SDS011;71724;-33.900;151.182;2023-11-21T08:27:40;2.40;;;1.00;;
16743;SDS011;71724;-33.900;151.182;2023-11-21T08:30:08;4.15;;;1.30;;
16743;SDS011;71724;-33.900;151.182;2023-11-21T08:32:36;5.10;;;0.90;;
16743;SDS011;71724;-33.900;151.182;2023-11-21T08:35:03;2.42;;;0.70;;
16743;SDS011;71724;-33.900;151.182;2023-11-21T08:37:31;1.35;;;0.70;;
16743;SDS011;71724;-33.900;151.182;2023-11-21T08:40:03;4.00;;;1.00;;
16743;SDS011;71724;-33.900;151.182;2023-11-21T08:42:35;2.47;;;0.63;;
16743;SDS011;71724;-33.900;151.182;2023-11-21T08:45:03;4.68;;;0.73;;
16743;SDS011;71724;-33.900;151.182;2023-11-21T08:47:31;2.25;;;0.60;;
16743;SDS011;71724;-33.900;151.182;2023-11-21T08:50:00;1.20;;;0.70;;
16743;SDS011;71724;-33.900;151.182;2023-11-21T08:52:28;2.47;;;0.60;;
16743;SDS011;71724;-33.900;151.182;2023-11-21T08:54:55;3.72;;;0.80;;
16743;SDS011;71724;-33.900;151.182;2023-11-21T08:57:23;5.28;;;1.25;;
16743;SDS011;71724;-33.900;151.182;2023-11-21T08:59:52;3.28;;;1.20;;
16743;SDS011;71724;-33.900;151.182;2023-11-21T09:02:21;3.10;;;1.10;;
16743;SDS011;71724;-33.900;151.182;2023-11-21T09:04:49;5.50;;;1.20;;
16743;SDS011;71724;-33.900;151.182;2023-11-21T09:07:21;3.35;;;0.95;;
16743;SDS011;71724;-33.900;151.182;2023-11-21T09:09:48;2.88;;;1.20;;
16743;SDS011;71724;-33.900;151.182;2023-11-21T09:12:17;2.65;;;0.90;;
16743;SDS011;71724;-33.900;151.182;2023-11-21T09:14:44;5.40;;;1.20;;
16743;SDS011;71724;-33.900;151.182;2023-11-21T09:17:12;5.10;;;1.83;;
16743;SDS011;71724;-33.900;151.182;2023-11-21T09:19:40;4.00;;;1.10;;
16743;SDS011;71724;-33.900;151.182;2023-11-21T09:22:09;3.47;;;0.93;;
16743;SDS011;71724;-33.900;151.182;2023-11-21T09:24:36;2.88;;;0.98;;
16743;SDS011;71724;-33.900;151.182;2023-11-21T09:27:03;5.00;;;1.25;;
16743;SDS011;71724;-33.900;151.182;2023-11-21T09:29:31;2.35;;;0.93;;
16743;SDS011;71724;-33.900;151.182;2023-11-21T09:31:58;3.17;;;0.73;;
16743;SDS011;71724;-33.900;151.182;2023-11-21T09:34:26;3.63;;;0.93;;
16743;SDS011;71724;-33.900;151.182;2023-11-21T09:36:54;5.43;;;0.90;;
16743;SDS011;71724;-33.900;151.182;2023-11-21T09:39:21;4.03;;;1.00;;
16743;SDS011;71724;-33.900;151.182;2023-11-21T09:41:51;2.33;;;0.90;;
16743;SDS011;71724;-33.900;151.182;2023-11-21T09:44:26;3.60;;;1.00;;
16743;SDS011;71724;-33.900;151.182;2023-11-21T09:47:22;4.53;;;1.00;;
16743;SDS011;71724;-33.900;151.182;2023-11-21T09:49:49;3.22;;;0.90;;
16743;SDS011;71724;-33.900;151.182;2023-11-21T09:52:29;5.35;;;1.00;;
16743;SDS011;71724;-33.900;151.182;2023-11-21T09:54:58;2.85;;;1.00;;
16743;SDS011;71724;-33.900;151.182;2023-11-21T09:57:26;4.70;;;0.93;;
16743;SDS011;71724;-33.900;151.182;2023-11-21T09:59:54;4.85;;;1.10;;
16743;SDS011;71724;-33.900;151.182;2023-11-21T10:02:28;5.60;;;1.00;;
16743;SDS011;71724;-33.900;151.182;2023-11-21T10:05:02;6.25;;;1.20;;
16743;SDS011;71724;-33.900;151.182;2023-11-21T10:07:30;5.32;;;1.30;;
16743;SDS011;71724;-33.900;151.182;2023-11-21T10:10:00;3.03;;;1.27;;
16743;SDS011;71724;-33.900;151.182;2023-11-21T10:12:29;4.20;;;0.93;;
16743;SDS011;71724;-33.900;151.182;2023-11-21T10:14:57;4.53;;;1.10;;
16743;SDS011;71724;-33.900;151.182;2023-11-21T10:17:28;3.63;;;1.00;;
16743;SDS011;71724;-33.900;151.182;2023-11-21T10:20:09;3.33;;;0.73;;
16743;SDS011;71724;-33.900;151.182;2023-11-21T10:22:42;5.05;;;0.93;;
16743;SDS011;71724;-33.900;151.182;2023-11-21T10:25:09;5.80;;;1.17;;
16743;SDS011;71724;-33.900;151.182;2023-11-21T10:27:40;4.45;;;0.90;;
16743;SDS011;71724;-33.900;151.182;2023-11-21T10:30:09;7.10;;;1.08;;
16743;SDS011;71724;-33.900;151.182;2023-11-21T10:32:42;7.95;;;1.02;;
16743;SDS011;71724;-33.900;151.182;2023-11-21T10:35:11;5.60;;;0.80;;
16743;SDS011;71724;-33.900;151.182;2023-11-21T10:37:41;2.47;;;0.90;;
16743;SDS011;71724;-33.900;151.182;2023-11-21T10:40:11;6.70;;;1.10;;
16743;SDS011;71724;-33.900;151.182;2023-11-21T10:42:39;3.67;;;0.90;;
16743;SDS011;71724;-33.900;151.182;2023-11-21T10:45:09;4.97;;;1.20;;
16743;SDS011;71724;-33.900;151.182;2023-11-21T10:47:40;4.82;;;1.08;;
16743;SDS011;71724;-33.900;151.182;2023-11-21T10:50:08;2.80;;;0.85;;
16743;SDS011;71724;-33.900;151.182;2023-11-21T10:52:37;5.32;;;1.17;;
16743;SDS011;71724;-33.900;151.182;2023-11-21T10:55:18;5.60;;;1.02;;
16743;SDS011;71724;-33.900;151.182;2023-11-21T10:57:53;3.78;;;0.90;;
16743;SDS011;71724;-33.900;151.182;2023-11-21T11:00:23;1.88;;;0.50;;
16743;SDS011;71724;-33.900;151.182;2023-11-21T11:02:53;3.95;;;0.85;;
16743;SDS011;71724;-33.900;151.182;2023-11-21T11:05:25;3.58;;;0.80;;
16743;SDS011;71724;-33.900;151.182;2023-11-21T11:08:05;3.67;;;0.80;;
16743;SDS011;71724;-33.900;151.182;2023-11-21T11:10:34;5.00;;;1.13;;
16743;SDS011;71724;-33.900;151.182;2023-11-21T11:13:02;4.95;;;0.70;;
16743;SDS011;71724;-33.900;151.182;2023-11-21T11:15:30;4.63;;;0.80;;
16743;SDS011;71724;-33.900;151.182;2023-11-21T11:17:59;1.88;;;0.90;;
16743;SDS011;71724;-33.900;151.182;2023-11-21T11:20:30;3.22;;;0.68;;
16743;SDS011;71724;-33.900;151.182;2023-11-21T11:26:10;3.25;;;0.70;;
16743;SDS011;71724;-33.900;151.182;2023-11-21T11:34:04;4.13;;;0.80;;
16743;SDS011;71724;-33.900;151.182;2023-11-21T11:36:44;1.40;;;0.52;;
16743;SDS011;71724;-33.900;151.182;2023-11-21T11:39:30;3.05;;;0.70;;
16743;SDS011;71724;-33.900;151.182;2023-11-21T11:42:02;4.13;;;0.77;;
16743;SDS011;71724;-33.900;151.182;2023-11-21T11:47:28;3.28;;;0.68;;
16743;SDS011;71724;-33.900;151.182;2023-11-21T11:50:03;3.78;;;1.00;;
16743;SDS011;71724;-33.900;151.182;2023-11-21T11:52:47;2.83;;;0.55;;
16743;SDS011;71724;-33.900;151.182;2023-11-21T11:55:37;4.75;;;0.60;;
16743;SDS011;71724;-33.900;151.182;2023-11-21T11:58:08;5.85;;;1.05;;
16743;SDS011;71724;-33.900;151.182;2023-11-21T12:00:36;4.22;;;0.60;;
16743;SDS011;71724;-33.900;151.182;2023-11-21T12:03:06;2.20;;;0.60;;
16743;SDS011;71724;-33.900;151.182;2023-11-21T12:05:35;2.60;;;1.00;;
16743;SDS011;71724;-33.900;151.182;2023-11-21T12:08:07;2.42;;;0.63;;
16743;SDS011;71724;-33.900;151.182;2023-11-21T12:10:38;4.15;;;0.85;;
16743;SDS011;71724;-33.900;151.182;2023-11-21T12:13:07;4.18;;;0.80;;
16743;SDS011;71724;-33.900;151.182;2023-11-21T12:15:37;2.67;;;0.77;;
16743;SDS011;71724;-33.900;151.182;2023-11-21T12:18:07;4.30;;;0.90;;
16743;SDS011;71724;-33.900;151.182;2023-11-21T12:20:34;2.60;;;0.80;;
16743;SDS011;71724;-33.900;151.182;2023-11-21T12:23:04;3.35;;;0.80;;
16743;SDS011;71724;-33.900;151.182;2023-11-21T12:25:34;3.50;;;0.95;;
16743;SDS011;71724;-33.900;151.182;2023-11-21T12:28:02;2.20;;;0.70;;
16743;SDS011;71724;-33.900;151.182;2023-11-21T12:30:31;0.95;;;0.50;;
16743;SDS011;71724;-33.900;151.182;2023-11-21T12:33:03;2.70;;;0.90;;
16743;SDS011;71724;-33.900;151.182;2023-11-21T12:35:34;3.58;;;0.80;;
16743;SDS011;71724;-33.900;151.182;2023-11-21T12:38:03;3.28;;;1.15;;
16743;SDS011;71724;-33.900;151.182;2023-11-21T12:40:31;2.47;;;0.70;;
16743;SDS011;71724;-33.900;151.182;2023-11-21T12:42:58;2.17;;;0.50;;
16743;SDS011;71724;-33.900;151.182;2023-11-21T12:45:33;1.55;;;0.68;;
16743;SDS011;71724;-33.900;151.182;2023-11-21T12:48:04;2.33;;;0.70;;
16743;SDS011;71724;-33.900;151.182;2023-11-21T12:50:37;2.38;;;0.70;;
16743;SDS011;71724;-33.900;151.182;2023-11-21T12:53:08;3.28;;;0.75;;
16743;SDS011;71724;-33.900;151.182;2023-11-21T12:55:43;3.72;;;1.02;;
16743;SDS011;71724;-33.900;151.182;2023-11-21T12:58:15;2.25;;;0.77;;
16743;SDS011;71724;-33.900;151.182;2023-11-21T13:00:46;4.78;;;1.00;;
16743;SDS011;71724;-33.900;151.182;2023-11-21T13:03:15;2.60;;;0.68;;
16743;SDS011;71724;-33.900;151.182;2023-11-21T13:05:49;1.63;;;0.70;;
16743;SDS011;71724;-33.900;151.182;2023-11-21T13:08:19;2.30;;;0.65;;
16743;SDS011;71724;-33.900;151.182;2023-11-21T13:10:54;2.92;;;0.90;;
16743;SDS011;71724;-33.900;151.182;2023-11-21T13:13:23;4.03;;;0.63;;
16743;SDS011;71724;-33.900;151.182;2023-11-21T13:15:52;1.70;;;0.60;;
16743;SDS011;71724;-33.900;151.182;2023-11-21T13:18:26;1.88;;;0.70;;
16743;SDS011;71724;-33.900;151.182;2023-11-21T13:20:55;4.05;;;0.70;;
16743;SDS011;71724;-33.900;151.182;2023-11-21T13:23:23;3.13;;;0.70;;
16743;SDS011;71724;-33.900;151.182;2023-11-21T13:25:52;2.47;;;1.02;;
16743;SDS011;71724;-33.900;151.182;2023-11-21T13:28:20;1.67;;;0.70;;
16743;SDS011;71724;-33.900;151.182;2023-11-21T13:30:52;2.75;;;0.75;;
16743;SDS011;71724;-33.900;151.182;2023-11-21T13:33:21;2.00;;;1.02;;
16743;SDS011;71724;-33.900;151.182;2023-11-21T13:35:53;3.47;;;0.68;;
16743;SDS011;71724;-33.900;151.182;2023-11-21T13:38:22;3.00;;;0.75;;
16743;SDS011;71724;-33.900;151.182;2023-11-21T13:40:53;1.67;;;0.70;;
16743;SDS011;71724;-33.900;151.182;2023-11-21T13:43:22;2.10;;;0.90;;
16743;SDS011;71724;-33.900;151.182;2023-11-21T13:45:53;3.00;;;0.80;;
16743;SDS011;71724;-33.900;151.182;2023-11-21T13:48:28;2.95;;;0.70;;
16743;SDS011;71724;-33.900;151.182;2023-11-21T13:51:06;5.22;;;1.00;;
16743;SDS011;71724;-33.900;151.182;2023-11-21T13:53:46;6.18;;;0.82;;
16743;SDS011;71724;-33.900;151.182;2023-11-21T13:56:16;3.78;;;0.80;;
16743;SDS011;71724;-33.900;151.182;2023-11-21T13:58:49;2.80;;;0.80;;
16743;SDS011;71724;-33.900;151.182;2023-11-21T14:01:17;4.47;;;0.70;;
16743;SDS011;71724;-33.900;151.182;2023-11-21T14:03:55;3.70;;;0.73;;
16743;SDS011;71724;-33.900;151.182;2023-11-21T14:06:28;3.53;;;0.60;;
16743;SDS011;71724;-33.900;151.182;2023-11-21T14:09:05;2.42;;;0.70;;
16743;SDS011;71724;-33.900;151.182;2023-11-21T14:11:33;3.17;;;0.90;;
16743;SDS011;71724;-33.900;151.182;2023-11-21T14:14:03;3.15;;;0.75;;
16743;SDS011;71724;-33.900;151.182;2023-11-21T14:16:31;2.78;;;0.93;;
16743;SDS011;71724;-33.900;151.182;2023-11-21T14:18:58;2.38;;;0.88;;
16743;SDS011;71724;-33.900;151.182;2023-11-21T14:21:27;2.42;;;0.80;;
16743;SDS011;71724;-33.900;151.182;2023-11-21T14:23:54;2.65;;;0.90;;
16743;SDS011;71724;-33.900;151.182;2023-11-21T14:26:22;2.55;;;0.90;;
16743;SDS011;71724;-33.900;151.182;2023-11-21T14:28:50;1.75;;;0.70;;
16743;SDS011;71724;-33.900;151.182;2023-11-21T14:31:19;4.80;;;0.75;;